createdAt,value
2023-02-17T00:01:30.782Z,85.30
2023-02-17T00:03:39.086Z,77.10
2023-02-17T00:05:41.276Z,78.47
2023-02-17T00:07:43.870Z,79.50
2023-02-17T00:09:48.733Z,87.07
2023-02-17T00:11:51.334Z,90.30
2023-02-17T00:13:56.195Z,90.00
2023-02-17T00:16:01.084Z,90.53
2023-02-17T00:18:06.093Z,96.57
2023-02-17T00:20:08.582Z,98.07
2023-02-17T00:22:10.613Z,92.47
2023-02-17T00:24:12.560Z,93.00
2023-02-17T00:26:15.973Z,92.07
2023-02-17T00:28:21.135Z,100.20
2023-02-17T00:30:25.093Z,80.37
2023-02-17T00:32:28.266Z,83.00
2023-02-17T00:34:30.271Z,84.43
2023-02-17T00:36:32.513Z,88.53
2023-02-17T00:38:37.033Z,83.73
2023-02-17T00:40:39.301Z,83.20
2023-02-17T00:42:41.725Z,79.63
2023-02-17T00:44:44.144Z,77.63
2023-02-17T00:46:46.856Z,81.83
2023-02-17T00:48:49.962Z,88.83
2023-02-17T00:50:52.157Z,91.13
2023-02-17T00:52:54.649Z,78.67
2023-02-17T00:54:57.277Z,81.37
2023-02-17T00:56:59.398Z,71.20
2023-02-17T00:59:01.583Z,89.17
2023-02-17T01:01:04.392Z,190.83
2023-02-17T01:03:06.324Z,223.80
2023-02-17T01:05:08.740Z,149.43
2023-02-17T01:07:11.049Z,116.43
2023-02-17T01:09:14.898Z,111.17
2023-02-17T01:11:19.249Z,124.27
2023-02-17T01:13:21.798Z,145.37
2023-02-17T01:15:24.232Z,198.87
2023-02-17T01:17:26.371Z,167.10
2023-02-17T01:19:30.484Z,125.40
2023-02-17T01:21:33.226Z,103.87
2023-02-17T01:23:35.410Z,114.23
2023-02-17T01:25:41.693Z,149.13
2023-02-17T01:27:44.264Z,248.27
2023-02-17T01:29:46.814Z,271.13
2023-02-17T01:31:48.848Z,305.60
2023-02-17T01:33:50.844Z,251.20
2023-02-17T01:35:52.849Z,164.23
2023-02-17T01:37:55.378Z,145.83
2023-02-17T01:39:58.694Z,164.33
2023-02-17T01:42:01.337Z,311.20
2023-02-17T01:44:14.603Z,201.50
2023-02-17T01:46:16.655Z,174.67
2023-02-17T01:48:43.548Z,168.47
2023-02-17T01:51:02.886Z,180.80
2023-02-17T01:53:07.724Z,148.60
2023-02-17T01:55:15.545Z,127.73
2023-02-17T01:57:21.677Z,143.37
2023-02-17T01:59:24.035Z,128.67
2023-02-17T02:01:25.977Z,179.80
2023-02-17T02:03:32.509Z,227.67
2023-02-17T02:05:37.486Z,195.87
2023-02-17T02:07:43.200Z,183.20
2023-02-17T02:09:50.996Z,170.80
2023-02-17T02:11:53.138Z,236.07
2023-02-17T02:13:55.514Z,224.80
2023-02-17T02:16:22.175Z,165.73
2023-02-17T02:19:05.482Z,201.47
2023-02-17T02:21:48.868Z,146.53
2023-02-17T02:24:03.502Z,102.53
2023-02-17T02:26:05.733Z,105.03
2023-02-17T02:28:38.919Z,89.20
2023-02-17T02:31:09.576Z,112.37
2023-02-17T02:33:32.813Z,154.37
2023-02-17T02:35:51.595Z,123.17
2023-02-17T02:37:57.460Z,115.67
2023-02-17T02:40:05.942Z,101.53
2023-02-17T02:42:13.834Z,95.27
2023-02-17T02:44:20.946Z,78.87
2023-02-17T02:46:22.932Z,80.70
2023-02-17T02:48:26.462Z,81.40
2023-02-17T02:50:36.939Z,78.67
2023-02-17T02:53:06.220Z,64.10
2023-02-17T02:55:17.219Z,78.47
2023-02-17T02:57:48.834Z,86.07
2023-02-17T03:00:13.678Z,87.60
2023-02-17T03:02:27.522Z,76.87
2023-02-17T03:05:14.948Z,73.63
2023-02-17T03:07:30.440Z,74.57
2023-02-17T03:09:33.255Z,80.97
2023-02-17T03:11:35.983Z,104.97
2023-02-17T03:13:41.135Z,97.10
2023-02-17T03:15:46.622Z,89.67
2023-02-17T03:17:48.594Z,81.30
2023-02-17T03:19:50.912Z,77.60
2023-02-17T03:22:01.812Z,75.73
2023-02-17T03:24:04.606Z,67.70
2023-02-17T03:26:07.180Z,70.73
2023-02-17T03:28:09.519Z,68.93
2023-02-17T03:30:11.966Z,74.00
2023-02-17T03:32:14.137Z,75.47
2023-02-17T03:34:16.266Z,68.37
2023-02-17T03:36:18.377Z,69.00
2023-02-17T03:38:20.398Z,69.30
2023-02-17T03:40:22.413Z,65.03
2023-02-17T03:42:27.238Z,76.23
2023-02-17T03:44:29.362Z,69.13
2023-02-17T03:46:31.420Z,69.27
2023-02-17T03:48:33.503Z,63.30
2023-02-17T03:50:35.930Z,72.67
2023-02-17T03:52:38.228Z,65.20
2023-02-17T03:54:41.575Z,69.37
2023-02-17T03:56:43.694Z,72.73
2023-02-17T03:58:46.231Z,82.20
2023-02-17T04:00:48.402Z,88.50
2023-02-17T04:02:50.576Z,128.83
2023-02-17T04:04:52.658Z,123.67
2023-02-17T04:06:54.483Z,127.20
2023-02-17T04:08:58.805Z,129.07
2023-02-17T04:11:02.648Z,109.30
2023-02-17T04:13:05.136Z,104.47
2023-02-17T04:15:07.881Z,96.93
2023-02-17T04:17:10.022Z,101.53
2023-02-17T04:19:14.083Z,91.97
2023-02-17T04:21:16.370Z,112.73
2023-02-17T04:23:20.892Z,174.27
2023-02-17T04:25:23.684Z,126.53
2023-02-17T04:27:25.885Z,213.97
2023-02-17T04:29:27.810Z,254.20
2023-02-17T04:31:30.039Z,257.27
2023-02-17T04:33:32.424Z,195.67
2023-02-17T04:35:34.577Z,151.00
2023-02-17T04:37:36.876Z,119.83
2023-02-17T04:39:39.327Z,106.43
2023-02-17T04:41:41.371Z,104.30
2023-02-17T04:43:43.457Z,98.40
2023-02-17T04:45:45.887Z,111.87
2023-02-17T04:47:47.968Z,192.07
2023-02-17T04:49:49.955Z,165.97
2023-02-17T04:51:52.136Z,112.30
2023-02-17T04:53:54.875Z,92.67
2023-02-17T04:55:56.877Z,90.70
2023-02-17T04:57:58.880Z,106.37
2023-02-17T05:00:01.102Z,100.47
2023-02-17T05:02:03.264Z,98.17
2023-02-17T05:04:05.976Z,112.93
2023-02-17T05:06:08.165Z,150.10
2023-02-17T05:08:13.020Z,148.97
2023-02-17T05:10:16.981Z,111.40
2023-02-17T05:12:18.990Z,112.63
2023-02-17T05:14:21.058Z,127.17
2023-02-17T05:16:23.141Z,121.47
2023-02-17T05:18:27.903Z,126.10
2023-02-17T05:20:30.625Z,131.07
2023-02-17T05:22:32.728Z,121.23
2023-02-17T05:24:34.980Z,126.50
2023-02-17T05:26:37.053Z,126.97
2023-02-17T05:28:39.208Z,120.60
2023-02-17T05:30:41.269Z,130.30
2023-02-17T05:32:43.288Z,127.53
2023-02-17T05:34:45.466Z,126.13
2023-02-17T05:36:47.783Z,142.07
2023-02-17T05:38:51.299Z,112.57
2023-02-17T05:40:56.626Z,132.10
2023-02-17T05:42:58.938Z,126.73
2023-02-17T05:45:01.284Z,121.67
2023-02-17T05:47:03.483Z,115.40
2023-02-17T05:49:05.780Z,118.20
2023-02-17T05:51:08.030Z,104.97
2023-02-17T05:53:10.224Z,97.33
2023-02-17T05:55:12.156Z,116.43
2023-02-17T05:57:14.266Z,118.27
2023-02-17T05:59:16.852Z,114.93
2023-02-17T06:01:19.077Z,102.43
2023-02-17T06:03:21.168Z,99.67
2023-02-17T06:05:23.554Z,84.93
2023-02-17T06:07:25.867Z,116.37
2023-02-17T06:09:27.948Z,116.20
2023-02-17T06:11:30.167Z,109.87
2023-02-17T06:13:32.408Z,101.30
2023-02-17T06:15:34.684Z,94.60
2023-02-17T06:17:37.207Z,92.97
2023-02-17T06:19:41.911Z,98.83
2023-02-17T06:21:44.204Z,114.77
2023-02-17T06:23:47.407Z,121.93
2023-02-17T06:25:49.606Z,126.33
2023-02-17T06:27:51.600Z,138.93
2023-02-17T06:29:53.824Z,134.27
2023-02-17T06:31:56.019Z,142.03
2023-02-17T06:33:58.239Z,150.37
2023-02-17T06:36:00.167Z,135.30
2023-02-17T06:38:02.358Z,136.33
2023-02-17T06:40:05.126Z,139.40
2023-02-17T06:42:07.424Z,150.00
2023-02-17T06:44:09.519Z,150.47
2023-02-17T06:46:12.180Z,140.83
2023-02-17T06:48:14.389Z,130.63
2023-02-17T06:50:18.643Z,145.77
2023-02-17T06:52:20.654Z,158.43
2023-02-17T06:54:22.884Z,140.63
2023-02-17T06:56:24.872Z,149.93
2023-02-17T06:58:27.367Z,149.20
2023-02-17T07:00:29.430Z,160.33
2023-02-17T07:02:31.731Z,172.30
2023-02-17T07:04:36.715Z,174.07
2023-02-17T07:06:38.938Z,171.27
2023-02-17T07:08:41.084Z,174.17
2023-02-17T07:10:43.207Z,166.87
2023-02-17T07:12:45.252Z,149.33
2023-02-17T07:14:47.491Z,148.53
2023-02-17T07:16:49.714Z,128.63
2023-02-17T07:18:52.273Z,112.20
2023-02-17T07:20:54.501Z,107.43
2023-02-17T07:22:57.134Z,102.03
2023-02-17T07:24:59.224Z,102.80
2023-02-17T07:27:01.493Z,99.30
2023-02-17T07:29:04.590Z,90.13
2023-02-17T07:31:12.399Z,101.23
2023-02-17T07:33:14.534Z,92.27
2023-02-17T07:35:17.049Z,98.63
2023-02-17T07:37:21.956Z,92.73
2023-02-17T07:39:24.047Z,105.27
2023-02-17T07:41:28.915Z,118.73
2023-02-17T07:43:31.140Z,117.60
2023-02-17T07:45:33.684Z,141.40
2023-02-17T07:47:38.096Z,121.93
2023-02-17T07:49:40.402Z,90.93
2023-02-17T07:51:42.552Z,84.90
2023-02-17T07:53:44.579Z,68.40
2023-02-17T07:55:46.923Z,63.83
2023-02-17T07:57:48.876Z,67.43
2023-02-17T07:59:50.932Z,67.63
2023-02-17T08:01:52.995Z,72.10
2023-02-17T08:03:57.108Z,73.20
2023-02-17T08:05:59.097Z,75.30
2023-02-17T08:08:19.784Z,70.70
2023-02-17T08:10:40.123Z,67.00
2023-02-17T08:13:00.403Z,66.03
2023-02-17T08:15:02.552Z,66.53
2023-02-17T08:17:05.886Z,70.67
2023-02-17T08:19:08.589Z,75.00
2023-02-17T08:21:10.731Z,74.63
2023-02-17T08:23:12.822Z,75.00
2023-02-17T08:25:15.143Z,77.67
2023-02-17T08:27:18.286Z,69.50
2023-02-17T08:29:21.189Z,70.63
2023-02-17T08:31:26.415Z,64.77
2023-02-17T08:33:28.790Z,63.90
2023-02-17T08:35:31.009Z,65.37
2023-02-17T08:37:33.329Z,62.10
2023-02-17T08:39:35.829Z,61.93
2023-02-17T08:41:39.467Z,67.00
2023-02-17T08:43:42.475Z,65.37
2023-02-17T08:45:46.166Z,64.87
2023-02-17T08:47:51.188Z,60.83
2023-02-17T08:49:53.425Z,61.23
2023-02-17T08:51:55.497Z,60.23
2023-02-17T08:54:00.919Z,61.40
2023-02-17T08:56:02.998Z,65.77
2023-02-17T08:58:05.160Z,63.10
2023-02-17T09:00:09.674Z,64.83
2023-02-17T09:02:11.979Z,67.33
2023-02-17T09:04:15.419Z,59.87
2023-02-17T09:06:18.062Z,63.07
2023-02-17T09:08:20.228Z,64.17
2023-02-17T09:10:22.871Z,57.00
2023-02-17T09:12:24.970Z,60.07
2023-02-17T09:14:27.922Z,60.40
2023-02-17T09:16:31.168Z,64.10
2023-02-17T09:18:36.370Z,61.77
2023-02-17T09:20:39.735Z,62.60
2023-02-17T09:22:41.835Z,59.37
2023-02-17T09:24:44.659Z,62.77
2023-02-17T09:26:46.599Z,57.13
2023-02-17T09:28:49.608Z,63.77
2023-02-17T09:30:51.889Z,61.47
2023-02-17T09:32:54.077Z,61.83
2023-02-17T09:34:56.233Z,54.43
2023-02-17T09:36:58.595Z,58.53
2023-02-17T09:39:01.946Z,58.93
2023-02-17T09:41:18.143Z,52.60
2023-02-17T09:43:27.047Z,57.97
2023-02-17T09:45:34.905Z,53.17
2023-02-17T09:47:54.049Z,56.80
2023-02-17T09:50:44.437Z,56.70
2023-02-17T09:52:53.700Z,53.57
2023-02-17T09:55:10.741Z,53.67
2023-02-17T09:57:19.849Z,57.83
2023-02-17T09:59:32.347Z,53.97
2023-02-17T10:01:35.858Z,54.47
2023-02-17T10:03:44.372Z,58.30
2023-02-17T10:05:59.409Z,65.50
2023-02-17T10:08:24.306Z,143.83
2023-02-17T10:10:48.902Z,92.73
2023-02-17T10:12:56.323Z,93.83
2023-02-17T10:15:03.801Z,138.90
2023-02-17T10:17:28.521Z,96.97
2023-02-17T10:19:41.488Z,115.83
2023-02-17T10:21:57.639Z,98.17
2023-02-17T10:23:59.806Z,121.37
2023-02-17T10:26:08.787Z,105.27
2023-02-17T10:28:18.801Z,113.47
2023-02-17T10:30:38.236Z,106.77
2023-02-17T10:33:02.687Z,86.93
2023-02-17T10:35:13.765Z,93.50
2023-02-17T10:37:32.532Z,76.30
2023-02-17T10:39:49.154Z,78.13
2023-02-17T10:41:52.994Z,72.40
2023-02-17T10:43:55.812Z,72.33
2023-02-17T10:45:59.986Z,80.73
2023-02-17T10:48:04.037Z,92.33
2023-02-17T10:50:14.559Z,75.67
2023-02-17T10:52:21.121Z,75.80
2023-02-17T10:55:06.513Z,90.67
2023-02-17T10:57:19.464Z,120.73
2023-02-17T10:59:30.540Z,138.83
2023-02-17T11:01:34.158Z,94.13
2023-02-17T11:03:41.319Z,94.73
2023-02-17T11:05:43.655Z,72.33
2023-02-17T11:07:46.194Z,81.33
2023-02-17T11:09:56.162Z,78.37
2023-02-17T11:12:09.106Z,71.87
2023-02-17T11:14:23.959Z,114.97
2023-02-17T11:16:29.609Z,106.03
2023-02-17T11:18:38.465Z,77.80
2023-02-17T11:20:40.794Z,74.20
2023-02-17T11:22:49.288Z,73.27
2023-02-17T11:25:03.794Z,76.97
2023-02-17T11:27:11.919Z,83.37
2023-02-17T11:29:21.464Z,93.80
2023-02-17T11:31:27.077Z,81.17
2023-02-17T11:33:40.631Z,77.97
2023-02-17T11:35:42.528Z,78.70
2023-02-17T11:37:44.622Z,87.10
2023-02-17T11:39:49.208Z,98.23
2023-02-17T11:41:51.340Z,102.83
2023-02-17T11:43:59.472Z,105.10
2023-02-17T11:46:28.753Z,105.80
2023-02-17T11:48:33.618Z,97.73
2023-02-17T11:50:48.539Z,88.03
2023-02-17T11:53:00.021Z,85.37
2023-02-17T11:55:27.049Z,91.87
2023-02-17T11:57:45.341Z,87.13
2023-02-17T12:00:22.782Z,82.37
2023-02-17T12:02:46.902Z,98.07
2023-02-17T12:05:21.233Z,80.43
2023-02-17T12:07:40.408Z,89.13
2023-02-17T12:10:10.367Z,79.20
2023-02-17T12:12:54.394Z,72.73
2023-02-17T12:15:02.295Z,86.27
2023-02-17T12:17:45.976Z,77.80
2023-02-17T12:19:50.711Z,80.93
2023-02-17T12:22:07.737Z,121.50
2023-02-17T12:24:19.239Z,78.70
2023-02-17T12:26:42.296Z,95.73
2023-02-17T12:29:09.390Z,78.93
2023-02-17T12:31:36.543Z,71.57
2023-02-17T12:34:15.495Z,75.43
2023-02-17T12:36:25.767Z,102.67
2023-02-17T12:38:55.513Z,75.13
2023-02-17T12:41:08.535Z,94.53
2023-02-17T12:43:36.696Z,80.10
2023-02-17T12:45:45.810Z,71.40
2023-02-17T12:47:57.489Z,69.90
2023-02-17T12:50:14.942Z,107.07
2023-02-17T12:52:29.451Z,74.10
2023-02-17T12:54:42.011Z,87.07
2023-02-17T12:56:55.294Z,63.83
2023-02-17T12:59:16.085Z,78.23
2023-02-17T13:01:21.867Z,64.90
2023-02-17T13:03:25.027Z,74.17
2023-02-17T13:05:55.283Z,135.63
2023-02-17T13:08:04.591Z,99.80
2023-02-17T13:10:08.113Z,105.17
2023-02-17T13:12:30.404Z,70.37
2023-02-17T13:14:44.594Z,69.10
2023-02-17T13:16:47.311Z,74.90
2023-02-17T13:18:52.349Z,57.03
2023-02-17T13:20:56.114Z,55.60
2023-02-17T13:23:11.578Z,56.63
2023-02-17T13:25:37.337Z,58.40
2023-02-17T13:27:41.222Z,80.27
2023-02-17T13:29:43.428Z,77.33
2023-02-17T13:31:53.055Z,65.37
2023-02-17T13:33:59.778Z,95.10
2023-02-17T13:36:15.688Z,126.97
2023-02-17T13:38:29.824Z,83.90
2023-02-17T13:40:38.796Z,89.47
2023-02-17T13:42:44.390Z,101.83
2023-02-17T13:44:48.843Z,128.33
2023-02-17T13:46:51.733Z,118.97
2023-02-17T13:49:06.902Z,99.30
2023-02-17T13:51:26.130Z,80.87
2023-02-17T13:53:28.157Z,66.33
2023-02-17T13:55:30.628Z,83.73
2023-02-17T13:57:37.105Z,84.43
2023-02-17T13:59:39.508Z,71.20
2023-02-17T14:01:42.900Z,60.97
2023-02-17T14:03:53.111Z,51.73
2023-02-17T14:06:00.494Z,50.43
2023-02-17T14:08:14.495Z,53.83
2023-02-17T14:10:22.107Z,62.60
2023-02-17T14:12:26.092Z,64.73
2023-02-17T14:14:39.966Z,78.17
2023-02-17T14:16:46.982Z,74.23
2023-02-17T14:18:49.152Z,70.30
2023-02-17T14:21:00.712Z,72.47
2023-02-17T14:23:07.159Z,70.87
2023-02-17T14:25:16.090Z,63.97
2023-02-17T14:27:17.996Z,54.50
2023-02-17T14:29:20.618Z,50.87
2023-02-17T14:31:27.130Z,53.97
2023-02-17T14:33:29.268Z,49.13
2023-02-17T14:35:35.391Z,49.93
2023-02-17T14:37:38.637Z,46.63
2023-02-17T14:39:40.900Z,49.73
2023-02-17T14:41:44.013Z,45.17
2023-02-17T14:43:46.938Z,48.13
2023-02-17T14:45:50.487Z,46.73
2023-02-17T14:47:52.696Z,58.17
2023-02-17T14:49:54.952Z,69.47
2023-02-17T14:51:56.976Z,89.33
2023-02-17T14:53:59.072Z,89.40
2023-02-17T14:56:10.566Z,76.93
2023-02-17T14:58:19.738Z,77.17
2023-02-17T15:00:22.397Z,64.80
2023-02-17T15:02:24.733Z,53.70
2023-02-17T15:04:26.902Z,54.83
2023-02-17T15:06:50.843Z,59.13
2023-02-17T15:08:52.988Z,63.03
2023-02-17T15:10:55.664Z,48.73
2023-02-17T15:12:58.047Z,52.97
2023-02-17T15:15:00.550Z,52.43
2023-02-17T15:17:02.556Z,49.70
2023-02-17T15:19:04.707Z,43.97
2023-02-17T15:21:25.697Z,46.47
2023-02-17T15:23:31.983Z,56.90
2023-02-17T15:25:35.714Z,61.33
2023-02-17T15:27:37.778Z,56.33
2023-02-17T15:29:40.189Z,50.77
2023-02-17T15:31:42.615Z,48.90
2023-02-17T15:33:45.168Z,48.50
2023-02-17T15:35:51.015Z,51.37
2023-02-17T15:37:54.260Z,50.83
2023-02-17T15:39:59.088Z,54.87
2023-02-17T15:42:07.547Z,64.37
2023-02-17T15:44:21.956Z,63.30
2023-02-17T15:46:32.210Z,62.30
2023-02-17T15:48:34.881Z,52.60
2023-02-17T15:50:37.114Z,56.07
2023-02-17T15:52:39.270Z,51.50
2023-02-17T15:54:42.926Z,46.30
2023-02-17T15:56:51.230Z,47.80
2023-02-17T15:58:53.991Z,49.37
2023-02-17T16:01:04.157Z,54.30
2023-02-17T16:03:08.537Z,46.73
2023-02-17T16:05:22.888Z,45.57
2023-02-17T16:07:25.004Z,48.33
2023-02-17T16:09:29.271Z,43.93
2023-02-17T16:11:32.213Z,44.90
2023-02-17T16:13:34.120Z,43.73
2023-02-17T16:15:37.594Z,38.10
2023-02-17T16:17:39.615Z,42.43
2023-02-17T16:19:41.946Z,43.30
2023-02-17T16:21:44.100Z,44.77
2023-02-17T16:23:46.361Z,40.03
2023-02-17T16:25:50.598Z,42.07
2023-02-17T16:27:53.651Z,44.50
2023-02-17T16:29:55.817Z,42.07
2023-02-17T16:31:57.982Z,47.13
2023-02-17T16:34:00.576Z,48.97
2023-02-17T16:36:02.845Z,43.03
2023-02-17T16:38:16.031Z,45.60
2023-02-17T16:51:35.370Z,44.33
2023-02-17T16:53:37.493Z,46.07
2023-02-17T16:55:39.509Z,53.00
2023-02-17T16:57:42.979Z,51.23
2023-02-17T16:59:45.742Z,52.97
2023-02-17T17:01:48.586Z,49.93
2023-02-17T17:03:51.323Z,48.03
2023-02-17T17:05:53.688Z,52.80
2023-02-17T17:07:56.598Z,48.30
2023-02-17T17:10:15.299Z,45.83
2023-02-17T17:12:18.534Z,46.10
2023-02-17T17:14:21.888Z,45.27
2023-02-17T17:16:34.158Z,47.83
2023-02-17T17:18:36.150Z,47.23
2023-02-17T17:20:41.688Z,46.43
2023-02-17T17:22:43.961Z,52.37
2023-02-17T17:24:46.203Z,46.30
2023-02-17T17:26:50.332Z,45.63
2023-02-17T17:28:53.123Z,44.47
2023-02-17T17:30:55.221Z,41.97
2023-02-17T17:32:57.317Z,43.17
2023-02-17T17:34:59.265Z,46.23
2023-02-17T17:37:01.657Z,45.20
2023-02-17T17:39:08.406Z,43.87
2023-02-17T17:41:13.473Z,43.83
2023-02-17T17:43:16.765Z,41.30
2023-02-17T17:45:19.310Z,43.50
2023-02-17T17:47:29.943Z,40.77
2023-02-17T17:49:32.633Z,44.60
2023-02-17T17:51:34.769Z,44.23
2023-02-17T17:53:36.939Z,41.80
2023-02-17T17:55:41.523Z,45.63
2023-02-17T17:57:43.589Z,44.63
2023-02-17T17:59:46.734Z,40.30
2023-02-17T18:01:48.848Z,42.43
2023-02-17T18:03:51.578Z,52.23
2023-02-17T18:05:53.718Z,49.43
2023-02-17T18:07:56.636Z,47.23
2023-02-17T18:09:59.535Z,45.60
2023-02-17T18:12:07.566Z,50.07
2023-02-17T18:14:13.853Z,47.30
2023-02-17T18:16:16.636Z,50.30
2023-02-17T18:18:19.462Z,68.30
2023-02-17T18:20:21.898Z,67.03
2023-02-17T18:22:24.267Z,68.67
2023-02-17T18:24:26.265Z,59.13
2023-02-17T18:26:29.474Z,60.60
2023-02-17T18:28:31.893Z,51.37
2023-02-17T18:30:36.710Z,47.40
2023-02-17T18:32:44.048Z,46.53
2023-02-17T18:34:46.248Z,47.17
2023-02-17T18:36:48.371Z,56.97
2023-02-17T18:38:51.137Z,59.40
2023-02-17T18:40:53.213Z,60.00
2023-02-17T18:42:55.829Z,51.83
2023-02-17T18:44:57.953Z,55.10
2023-02-17T18:47:00.838Z,48.17
2023-02-17T18:49:03.029Z,61.33
2023-02-17T18:51:10.434Z,60.17
2023-02-17T18:53:12.879Z,61.53
2023-02-17T18:55:15.555Z,58.13
2023-02-17T18:57:17.489Z,69.57
2023-02-17T18:59:19.643Z,56.03
2023-02-17T19:01:23.141Z,57.37
2023-02-17T19:03:29.749Z,50.47
2023-02-17T19:05:32.373Z,56.87
2023-02-17T19:07:35.032Z,51.50
2023-02-17T19:09:39.690Z,53.33
2023-02-17T19:11:42.138Z,53.37
2023-02-17T19:13:44.462Z,54.80
2023-02-17T19:15:46.507Z,43.87
2023-02-17T19:17:48.968Z,41.73
2023-02-17T19:19:52.492Z,40.00
2023-02-17T19:21:54.761Z,43.30
2023-02-17T19:23:56.748Z,45.00
2023-02-17T19:26:01.468Z,43.83
2023-02-17T19:28:06.452Z,40.83
2023-02-17T19:30:10.591Z,41.90
2023-02-17T19:32:13.185Z,35.83
2023-02-17T19:34:17.682Z,41.17
2023-02-17T19:36:22.639Z,44.13
2023-02-17T19:38:25.701Z,52.80
2023-02-17T19:40:27.719Z,46.10
2023-02-17T19:42:30.515Z,53.17
2023-02-17T19:44:32.775Z,47.27
2023-02-17T19:46:34.834Z,48.30
2023-02-17T19:48:36.759Z,56.60
2023-02-17T19:50:39.257Z,62.67
2023-02-17T19:52:41.225Z,62.17
2023-02-17T19:54:43.548Z,45.97
2023-02-17T19:56:49.178Z,43.73
2023-02-17T19:58:52.508Z,46.80
2023-02-17T20:00:54.409Z,43.10
2023-02-17T20:02:56.523Z,41.37
2023-02-17T20:04:58.720Z,46.87
2023-02-17T20:07:03.383Z,52.70
2023-02-17T20:09:08.785Z,55.43
2023-02-17T20:11:11.904Z,48.60
2023-02-17T20:13:13.767Z,52.47
2023-02-17T20:15:16.065Z,51.20
2023-02-17T20:17:18.083Z,43.73
2023-02-17T20:19:20.106Z,40.43
2023-02-17T20:21:26.254Z,47.33
2023-02-17T20:23:31.098Z,46.17
2023-02-17T20:25:33.516Z,51.83
2023-02-17T20:27:35.688Z,44.40
2023-02-17T20:29:38.068Z,47.50
2023-02-17T20:31:42.002Z,44.17
2023-02-17T20:33:47.589Z,45.97
2023-02-17T20:35:49.825Z,50.97
2023-02-17T20:37:53.053Z,52.77
2023-02-17T20:39:55.185Z,45.93
2023-02-17T20:41:57.539Z,42.93
2023-02-17T20:44:02.998Z,48.70
2023-02-17T20:46:05.618Z,44.37
2023-02-17T20:48:07.927Z,43.37
2023-02-17T20:50:14.764Z,45.57
2023-02-17T20:52:16.872Z,41.13
2023-02-17T20:54:18.978Z,41.40
2023-02-17T20:56:25.745Z,40.37
2023-02-17T20:58:29.122Z,42.53
2023-02-17T21:00:31.757Z,44.90
2023-02-17T21:02:34.230Z,46.67
2023-02-17T21:04:36.280Z,40.67
2023-02-17T21:06:41.466Z,44.77
2023-02-17T21:08:43.943Z,41.23
2023-02-17T21:10:46.540Z,50.60
2023-02-17T21:12:49.068Z,49.13
2023-02-17T21:14:51.550Z,42.80
2023-02-17T21:16:53.952Z,45.13
2023-02-17T21:18:55.970Z,44.00
2023-02-17T21:20:57.925Z,44.30
2023-02-17T21:23:01.168Z,40.47
2023-02-17T21:25:04.525Z,42.90
2023-02-17T21:27:06.503Z,40.90
2023-02-17T21:29:08.427Z,43.30
2023-02-17T21:31:10.978Z,41.07
2023-02-17T21:33:13.601Z,39.33
2023-02-17T21:35:15.733Z,37.70
2023-02-17T21:37:18.173Z,42.77
2023-02-17T21:39:21.435Z,43.97
2023-02-17T21:41:25.128Z,36.23
2023-02-17T21:43:45.985Z,42.03
2023-02-17T21:45:48.081Z,40.13
2023-02-17T21:47:50.141Z,39.93
2023-02-17T21:49:54.604Z,46.23
2023-02-17T21:51:56.715Z,39.40
2023-02-17T21:53:59.424Z,46.43
2023-02-17T21:56:02.610Z,46.30
2023-02-17T21:58:04.537Z,47.20
2023-02-17T22:00:07.236Z,44.83
2023-02-17T22:02:14.081Z,49.80
2023-02-17T22:04:16.187Z,45.30
2023-02-17T22:06:20.890Z,45.97
2023-02-17T22:08:24.058Z,44.33
2023-02-17T22:10:26.071Z,41.20
2023-02-17T22:12:28.314Z,41.37
2023-02-17T22:14:30.463Z,39.33
2023-02-17T22:16:35.271Z,39.07
2023-02-17T22:18:37.662Z,45.17
2023-02-17T22:20:44.245Z,41.53
2023-02-17T22:22:46.208Z,42.57
2023-02-17T22:24:48.215Z,45.77
2023-02-17T22:26:50.632Z,43.97
2023-02-17T22:28:54.305Z,45.33
2023-02-17T22:30:56.414Z,44.07
2023-02-17T22:33:02.401Z,43.43
2023-02-17T22:35:05.620Z,40.17
2023-02-17T22:37:07.631Z,44.70
2023-02-17T22:39:09.660Z,42.23
2023-02-17T22:41:14.678Z,42.23
2023-02-17T22:43:16.621Z,39.87
2023-02-17T22:45:18.722Z,40.90
2023-02-17T22:47:20.757Z,44.67
2023-02-17T22:49:22.778Z,48.20
2023-02-17T22:51:36.103Z,45.67
2023-02-17T22:53:41.136Z,38.30
2023-02-17T22:55:43.509Z,41.53
2023-02-17T22:57:47.461Z,40.10
2023-02-17T22:59:49.702Z,43.03
2023-02-17T23:01:51.713Z,40.50
2023-02-17T23:03:56.657Z,44.53
2023-02-17T23:06:04.230Z,40.27
2023-02-17T23:08:06.196Z,40.77
2023-02-17T23:10:08.952Z,41.03
2023-02-17T23:12:11.013Z,40.77
2023-02-17T23:14:14.267Z,39.23
2023-02-17T23:16:21.678Z,38.73
2023-02-17T23:18:24.064Z,39.77
2023-02-17T23:20:26.017Z,62.20
2023-02-17T23:22:27.896Z,54.20
2023-02-17T23:24:30.029Z,50.77
2023-02-17T23:26:32.117Z,84.70
2023-02-17T23:28:34.668Z,71.97
2023-02-17T23:30:37.214Z,48.47
2023-02-17T23:32:39.425Z,58.13
2023-02-17T23:34:41.917Z,92.30
2023-02-17T23:36:45.843Z,82.63
2023-02-17T23:38:48.177Z,91.43
2023-02-17T23:40:52.208Z,77.40
2023-02-17T23:42:54.653Z,75.27
2023-02-17T23:44:57.002Z,68.77
2023-02-17T23:47:00.606Z,77.07
2023-02-17T23:49:06.237Z,76.83
2023-02-17T23:51:08.370Z,65.60
2023-02-17T23:53:10.578Z,45.30
2023-02-17T23:55:15.354Z,43.30
2023-02-17T23:57:17.566Z,39.50
2023-02-17T23:59:19.668Z,39.67
